sensor_id;sensor_type;location;lat;lon;timestamp;P1;durP1;ratioP1;P2;durP2;ratioP2
79284;SDS011;68734;50.452;11.636;2023-05-02T00:00:15;8.27;;;4.82;;
79284;SDS011;68734;50.452;11.636;2023-05-02T00:02:40;7.45;;;4.85;;
79284;SDS011;68734;50.452;11.636;2023-05-02T00:05:06;6.93;;;4.65;;
79284;SDS011;68734;50.452;11.636;2023-05-02T00:07:32;5.18;;;4.32;;
79284;SDS011;68734;50.452;11.636;2023-05-02T00:09:58;6.03;;;4.45;;
79284;SDS011;68734;50.452;11.636;2023-05-02T00:12:26;6.68;;;4.65;;
79284;SDS011;68734;50.452;11.636;2023-05-02T00:14:51;6.38;;;4.15;;
79284;SDS011;68734;50.452;11.636;2023-05-02T00:17:18;6.82;;;3.97;;
79284;SDS011;68734;50.452;11.636;2023-05-02T00:19:44;7.70;;;4.90;;
79284;SDS011;68734;50.452;11.636;2023-05-02T00:22:10;8.52;;;4.53;;
79284;SDS011;68734;50.452;11.636;2023-05-02T00:24:35;7.75;;;5.00;;
79284;SDS011;68734;50.452;11.636;2023-05-02T00:27:01;5.72;;;4.40;;
79284;SDS011;68734;50.452;11.636;2023-05-02T00:29:26;6.97;;;4.60;;
79284;SDS011;68734;50.452;11.636;2023-05-02T00:31:52;5.70;;;4.25;;
79284;SDS011;68734;50.452;11.636;2023-05-02T00:34:19;5.40;;;4.03;;
79284;SDS011;68734;50.452;11.636;2023-05-02T00:36:45;8.10;;;5.05;;
79284;SDS011;68734;50.452;11.636;2023-05-02T00:39:10;7.35;;;4.07;;
79284;SDS011;68734;50.452;11.636;2023-05-02T00:41:36;6.43;;;4.10;;
79284;SDS011;68734;50.452;11.636;2023-05-02T00:44:01;6.10;;;4.55;;
79284;SDS011;68734;50.452;11.636;2023-05-02T00:46:29;6.30;;;4.32;;
79284;SDS011;68734;50.452;11.636;2023-05-02T00:48:55;5.85;;;3.90;;
79284;SDS011;68734;50.452;11.636;2023-05-02T00:51:20;6.50;;;4.10;;
79284;SDS011;68734;50.452;11.636;2023-05-02T00:53:46;6.05;;;4.45;;
79284;SDS011;68734;50.452;11.636;2023-05-02T00:56:12;8.48;;;4.70;;
79284;SDS011;68734;50.452;11.636;2023-05-02T00:58:38;6.43;;;3.83;;
79284;SDS011;68734;50.452;11.636;2023-05-02T01:12:02;5.70;;;4.50;;
79284;SDS011;68734;50.452;11.636;2023-05-02T01:14:51;6.00;;;4.55;;
79284;SDS011;68734;50.452;11.636;2023-05-02T01:17:19;6.13;;;4.35;;
79284;SDS011;68734;50.452;11.636;2023-05-02T01:19:57;7.55;;;4.68;;
79284;SDS011;68734;50.452;11.636;2023-05-02T01:22:27;7.07;;;5.32;;
79284;SDS011;68734;50.452;11.636;2023-05-02T01:30:21;6.38;;;4.03;;
79284;SDS011;68734;50.452;11.636;2023-05-02T01:32:51;6.93;;;4.50;;
79284;SDS011;68734;50.452;11.636;2023-05-02T01:35:18;6.13;;;4.28;;
79284;SDS011;68734;50.452;11.636;2023-05-02T01:37:45;5.85;;;4.18;;
79284;SDS011;68734;50.452;11.636;2023-05-02T01:40:13;5.70;;;3.92;;
79284;SDS011;68734;50.452;11.636;2023-05-02T01:42:42;8.13;;;4.95;;
79284;SDS011;68734;50.452;11.636;2023-05-02T01:45:10;6.60;;;4.38;;
79284;SDS011;68734;50.452;11.636;2023-05-02T01:47:37;7.80;;;4.25;;
79284;SDS011;68734;50.452;11.636;2023-05-02T01:50:06;8.18;;;4.40;;
79284;SDS011;68734;50.452;11.636;2023-05-02T01:52:35;6.65;;;4.03;;
79284;SDS011;68734;50.452;11.636;2023-05-02T01:55:02;5.97;;;4.07;;
79284;SDS011;68734;50.452;11.636;2023-05-02T01:57:30;8.20;;;4.55;;
79284;SDS011;68734;50.452;11.636;2023-05-02T01:59:56;7.32;;;4.25;;
79284;SDS011;68734;50.452;11.636;2023-05-02T02:02:26;8.13;;;4.55;;
79284;SDS011;68734;50.452;11.636;2023-05-02T02:04:56;5.80;;;4.40;;
79284;SDS011;68734;50.452;11.636;2023-05-02T02:07:21;8.90;;;5.22;;
79284;SDS011;68734;50.452;11.636;2023-05-02T02:09:47;7.50;;;4.80;;
79284;SDS011;68734;50.452;11.636;2023-05-02T02:12:20;6.38;;;4.22;;
79284;SDS011;68734;50.452;11.636;2023-05-02T02:15:02;5.78;;;4.07;;
79284;SDS011;68734;50.452;11.636;2023-05-02T02:18:17;5.97;;;4.30;;
79284;SDS011;68734;50.452;11.636;2023-05-02T02:20:22;5.75;;;3.90;;
79284;SDS011;68734;50.452;11.636;2023-05-02T02:22:49;5.90;;;4.30;;
79284;SDS011;68734;50.452;11.636;2023-05-02T02:25:17;6.70;;;4.03;;
79284;SDS011;68734;50.452;11.636;2023-05-02T02:27:42;8.27;;;4.25;;
79284;SDS011;68734;50.452;11.636;2023-05-02T02:30:08;6.13;;;4.38;;
79284;SDS011;68734;50.452;11.636;2023-05-02T02:32:34;6.57;;;4.32;;
79284;SDS011;68734;50.452;11.636;2023-05-02T02:35:00;6.55;;;4.50;;
79284;SDS011;68734;50.452;11.636;2023-05-02T02:54:12;6.40;;;4.50;;
79284;SDS011;68734;50.452;11.636;2023-05-02T02:56:33;8.35;;;4.28;;
79284;SDS011;68734;50.452;11.636;2023-05-02T02:59:19;6.00;;;4.10;;
79284;SDS011;68734;50.452;11.636;2023-05-02T03:02:06;5.93;;;4.15;;
79284;SDS011;68734;50.452;11.636;2023-05-02T03:04:40;5.22;;;3.72;;
79284;SDS011;68734;50.452;11.636;2023-05-02T03:07:07;5.35;;;3.97;;
79284;SDS011;68734;50.452;11.636;2023-05-02T03:09:40;4.65;;;3.53;;
79284;SDS011;68734;50.452;11.636;2023-05-02T03:12:10;8.60;;;3.85;;
79284;SDS011;68734;50.452;11.636;2023-05-02T03:14:36;6.25;;;4.25;;
79284;SDS011;68734;50.452;11.636;2023-05-02T03:17:03;4.38;;;3.50;;
79284;SDS011;68734;50.452;11.636;2023-05-02T03:19:29;5.05;;;3.72;;
79284;SDS011;68734;50.452;11.636;2023-05-02T03:21:55;5.38;;;3.97;;
79284;SDS011;68734;50.452;11.636;2023-05-02T03:24:20;5.13;;;3.90;;
79284;SDS011;68734;50.452;11.636;2023-05-02T03:26:46;7.85;;;3.88;;
79284;SDS011;68734;50.452;11.636;2023-05-02T03:29:12;5.72;;;4.00;;
79284;SDS011;68734;50.452;11.636;2023-05-02T03:31:38;6.70;;;4.35;;
79284;SDS011;68734;50.452;11.636;2023-05-02T03:34:03;4.30;;;3.28;;
79284;SDS011;68734;50.452;11.636;2023-05-02T03:36:32;4.97;;;3.55;;
79284;SDS011;68734;50.452;11.636;2023-05-02T03:38:57;4.93;;;3.33;;
79284;SDS011;68734;50.452;11.636;2023-05-02T03:41:23;4.57;;;3.13;;
79284;SDS011;68734;50.452;11.636;2023-05-02T03:43:49;10.93;;;5.57;;
79284;SDS011;68734;50.452;11.636;2023-05-02T03:46:15;10.63;;;6.82;;
79284;SDS011;68734;50.452;11.636;2023-05-02T03:48:40;14.80;;;8.43;;
79284;SDS011;68734;50.452;11.636;2023-05-02T03:51:10;7.43;;;4.88;;
79284;SDS011;68734;50.452;11.636;2023-05-02T03:53:35;6.32;;;4.03;;
79284;SDS011;68734;50.452;11.636;2023-05-02T03:56:01;6.45;;;3.58;;
79284;SDS011;68734;50.452;11.636;2023-05-02T03:58:26;9.57;;;5.85;;
79284;SDS011;68734;50.452;11.636;2023-05-02T04:00:52;12.13;;;9.82;;
79284;SDS011;68734;50.452;11.636;2023-05-02T04:03:20;12.70;;;7.72;;
79284;SDS011;68734;50.452;11.636;2023-05-02T04:05:46;12.63;;;8.02;;
79284;SDS011;68734;50.452;11.636;2023-05-02T04:08:12;8.43;;;6.38;;
79284;SDS011;68734;50.452;11.636;2023-05-02T04:10:37;6.07;;;4.40;;
79284;SDS011;68734;50.452;11.636;2023-05-02T04:13:05;4.65;;;3.92;;
79284;SDS011;68734;50.452;11.636;2023-05-02T04:15:30;4.07;;;2.88;;
79284;SDS011;68734;50.452;11.636;2023-05-02T04:17:56;4.38;;;3.60;;
79284;SDS011;68734;50.452;11.636;2023-05-02T04:20:24;5.75;;;3.70;;
79284;SDS011;68734;50.452;11.636;2023-05-02T04:22:53;6.82;;;3.50;;
79284;SDS011;68734;50.452;11.636;2023-05-02T04:25:19;4.18;;;3.40;;
79284;SDS011;68734;50.452;11.636;2023-05-02T04:27:45;5.75;;;3.50;;
79284;SDS011;68734;50.452;11.636;2023-05-02T04:30:10;5.57;;;3.83;;
79284;SDS011;68734;50.452;11.636;2023-05-02T04:32:36;5.80;;;4.03;;
79284;SDS011;68734;50.452;11.636;2023-05-02T04:35:02;6.00;;;4.13;;
79284;SDS011;68734;50.452;11.636;2023-05-02T04:37:27;5.40;;;4.05;;
79284;SDS011;68734;50.452;11.636;2023-05-02T04:39:53;4.57;;;3.55;;
79284;SDS011;68734;50.452;11.636;2023-05-02T04:42:18;5.82;;;4.03;;
79284;SDS011;68734;50.452;11.636;2023-05-02T04:44:44;6.68;;;3.65;;
79284;SDS011;68734;50.452;11.636;2023-05-02T04:47:09;5.72;;;4.35;;
79284;SDS011;68734;50.452;11.636;2023-05-02T04:49:35;7.78;;;4.47;;
79284;SDS011;68734;50.452;11.636;2023-05-02T04:52:00;7.03;;;4.72;;
79284;SDS011;68734;50.452;11.636;2023-05-02T04:54:26;8.57;;;5.80;;
79284;SDS011;68734;50.452;11.636;2023-05-02T04:56:52;10.43;;;5.97;;
79284;SDS011;68734;50.452;11.636;2023-05-02T04:59:17;7.55;;;6.05;;
79284;SDS011;68734;50.452;11.636;2023-05-02T05:01:43;8.15;;;5.75;;
79284;SDS011;68734;50.452;11.636;2023-05-02T05:04:09;7.85;;;5.75;;
79284;SDS011;68734;50.452;11.636;2023-05-02T05:06:35;7.80;;;5.82;;
79284;SDS011;68734;50.452;11.636;2023-05-02T05:09:02;6.45;;;4.95;;
79284;SDS011;68734;50.452;11.636;2023-05-02T05:11:30;6.15;;;4.80;;
79284;SDS011;68734;50.452;11.636;2023-05-02T05:13:56;6.38;;;4.85;;
79284;SDS011;68734;50.452;11.636;2023-05-02T05:16:26;5.70;;;4.30;;
79284;SDS011;68734;50.452;11.636;2023-05-02T05:18:52;6.75;;;5.05;;
79284;SDS011;68734;50.452;11.636;2023-05-02T05:21:18;9.57;;;6.10;;
79284;SDS011;68734;50.452;11.636;2023-05-02T05:23:43;8.07;;;6.85;;
79284;SDS011;68734;50.452;11.636;2023-05-02T05:26:16;9.95;;;6.97;;
79284;SDS011;68734;50.452;11.636;2023-05-02T05:28:41;7.75;;;6.60;;
79284;SDS011;68734;50.452;11.636;2023-05-02T05:31:10;7.57;;;5.93;;
79284;SDS011;68734;50.452;11.636;2023-05-02T05:33:44;9.73;;;6.38;;
79284;SDS011;68734;50.452;11.636;2023-05-02T05:36:10;11.80;;;7.05;;
79284;SDS011;68734;50.452;11.636;2023-05-02T05:38:38;14.35;;;8.93;;
79284;SDS011;68734;50.452;11.636;2023-05-02T05:41:04;14.48;;;8.88;;
79284;SDS011;68734;50.452;11.636;2023-05-02T05:43:30;15.68;;;10.25;;
79284;SDS011;68734;50.452;11.636;2023-05-02T05:45:56;11.65;;;7.97;;
79284;SDS011;68734;50.452;11.636;2023-05-02T05:48:21;10.10;;;6.85;;
79284;SDS011;68734;50.452;11.636;2023-05-02T05:50:47;7.28;;;6.50;;
79284;SDS011;68734;50.452;11.636;2023-05-02T05:53:14;7.68;;;5.63;;
79284;SDS011;68734;50.452;11.636;2023-05-02T05:55:40;8.00;;;5.63;;
79284;SDS011;68734;50.452;11.636;2023-05-02T05:58:06;8.52;;;6.30;;
79284;SDS011;68734;50.452;11.636;2023-05-02T06:00:35;8.60;;;6.15;;
79284;SDS011;68734;50.452;11.636;2023-05-02T06:03:06;8.27;;;6.03;;
79284;SDS011;68734;50.452;11.636;2023-05-02T06:05:31;7.85;;;6.70;;
79284;SDS011;68734;50.452;11.636;2023-05-02T06:07:57;12.90;;;8.88;;
79284;SDS011;68734;50.452;11.636;2023-05-02T06:10:23;14.15;;;9.70;;
79284;SDS011;68734;50.452;11.636;2023-05-02T06:12:48;8.88;;;6.18;;
79284;SDS011;68734;50.452;11.636;2023-05-02T06:15:14;7.68;;;5.55;;
79284;SDS011;68734;50.452;11.636;2023-05-02T06:17:40;8.07;;;5.72;;
79284;SDS011;68734;50.452;11.636;2023-05-02T06:20:06;10.73;;;6.40;;
79284;SDS011;68734;50.452;11.636;2023-05-02T06:22:32;12.32;;;7.88;;
79284;SDS011;68734;50.452;11.636;2023-05-02T06:24:57;7.93;;;6.15;;
79284;SDS011;68734;50.452;11.636;2023-05-02T06:27:23;7.55;;;5.85;;
79284;SDS011;68734;50.452;11.636;2023-05-02T06:29:52;6.47;;;4.57;;
79284;SDS011;68734;50.452;11.636;2023-05-02T06:32:17;8.73;;;5.50;;
79284;SDS011;68734;50.452;11.636;2023-05-02T06:34:43;5.43;;;3.88;;
79284;SDS011;68734;50.452;11.636;2023-05-02T06:37:09;6.93;;;3.50;;
79284;SDS011;68734;50.452;11.636;2023-05-02T06:39:35;5.75;;;3.35;;
79284;SDS011;68734;50.452;11.636;2023-05-02T06:42:01;4.78;;;3.30;;
79284;SDS011;68734;50.452;11.636;2023-05-02T06:44:26;4.25;;;3.55;;
79284;SDS011;68734;50.452;11.636;2023-05-02T06:46:52;4.60;;;3.33;;
79284;SDS011;68734;50.452;11.636;2023-05-02T06:49:17;5.38;;;3.28;;
79284;SDS011;68734;50.452;11.636;2023-05-02T06:51:45;4.38;;;3.28;;
79284;SDS011;68734;50.452;11.636;2023-05-02T06:54:10;3.90;;;3.10;;
79284;SDS011;68734;50.452;11.636;2023-05-02T06:56:36;4.85;;;3.20;;
79284;SDS011;68734;50.452;11.636;2023-05-02T06:59:01;7.00;;;3.65;;
79284;SDS011;68734;50.452;11.636;2023-05-02T07:01:27;5.57;;;2.88;;
79284;SDS011;68734;50.452;11.636;2023-05-02T07:03:52;5.28;;;3.25;;
79284;SDS011;68734;50.452;11.636;2023-05-02T07:06:20;4.65;;;2.97;;
79284;SDS011;68734;50.452;11.636;2023-05-02T07:08:46;5.43;;;2.90;;
79284;SDS011;68734;50.452;11.636;2023-05-02T07:11:11;5.22;;;3.10;;
79284;SDS011;68734;50.452;11.636;2023-05-02T07:13:37;4.95;;;3.30;;
79284;SDS011;68734;50.452;11.636;2023-05-02T07:16:02;7.57;;;3.30;;
79284;SDS011;68734;50.452;11.636;2023-05-02T07:18:28;6.13;;;3.28;;
79284;SDS011;68734;50.452;11.636;2023-05-02T07:20:53;3.50;;;2.70;;
79284;SDS011;68734;50.452;11.636;2023-05-02T07:23:19;3.92;;;2.90;;
79284;SDS011;68734;50.452;11.636;2023-05-02T07:25:46;4.45;;;2.85;;
79284;SDS011;68734;50.452;11.636;2023-05-02T07:28:11;4.65;;;3.03;;
79284;SDS011;68734;50.452;11.636;2023-05-02T07:30:37;5.13;;;3.50;;
79284;SDS011;68734;50.452;11.636;2023-05-02T07:33:02;5.53;;;3.85;;
79284;SDS011;68734;50.452;11.636;2023-05-02T07:35:28;5.25;;;3.30;;
79284;SDS011;68734;50.452;11.636;2023-05-02T07:37:53;5.85;;;3.47;;
79284;SDS011;68734;50.452;11.636;2023-05-02T07:40:19;4.28;;;2.53;;
79284;SDS011;68734;50.452;11.636;2023-05-02T07:42:45;4.35;;;2.58;;
79284;SDS011;68734;50.452;11.636;2023-05-02T07:45:10;4.47;;;3.05;;
79284;SDS011;68734;50.452;11.636;2023-05-02T07:47:36;3.35;;;2.80;;
79284;SDS011;68734;50.452;11.636;2023-05-02T07:50:01;4.40;;;3.03;;
79284;SDS011;68734;50.452;11.636;2023-05-02T07:52:30;5.75;;;2.80;;
79284;SDS011;68734;50.452;11.636;2023-05-02T07:54:56;4.32;;;3.15;;
79284;SDS011;68734;50.452;11.636;2023-05-02T07:57:22;4.53;;;3.63;;
79284;SDS011;68734;50.452;11.636;2023-05-02T07:59:48;4.03;;;2.90;;
79284;SDS011;68734;50.452;11.636;2023-05-02T08:02:13;4.47;;;3.20;;
79284;SDS011;68734;50.452;11.636;2023-05-02T08:04:41;4.80;;;2.95;;
79284;SDS011;68734;50.452;11.636;2023-05-02T08:07:07;5.10;;;3.17;;
79284;SDS011;68734;50.452;11.636;2023-05-02T08:09:35;4.88;;;3.75;;
79284;SDS011;68734;50.452;11.636;2023-05-02T08:12:00;4.50;;;3.28;;
79284;SDS011;68734;50.452;11.636;2023-05-02T08:14:29;4.57;;;3.00;;
79284;SDS011;68734;50.452;11.636;2023-05-02T08:16:55;4.38;;;3.28;;
79284;SDS011;68734;50.452;11.636;2023-05-02T08:19:21;4.03;;;2.83;;
79284;SDS011;68734;50.452;11.636;2023-05-02T08:21:46;4.13;;;2.78;;
79284;SDS011;68734;50.452;11.636;2023-05-02T08:24:11;3.97;;;2.47;;
79284;SDS011;68734;50.452;11.636;2023-05-02T08:26:37;5.90;;;3.28;;
79284;SDS011;68734;50.452;11.636;2023-05-02T08:29:05;5.50;;;2.63;;
79284;SDS011;68734;50.452;11.636;2023-05-02T08:31:30;3.65;;;2.78;;
79284;SDS011;68734;50.452;11.636;2023-05-02T08:33:56;5.43;;;3.00;;
79284;SDS011;68734;50.452;11.636;2023-05-02T08:36:21;6.85;;;3.22;;
79284;SDS011;68734;50.452;11.636;2023-05-02T08:38:47;4.95;;;2.95;;
79284;SDS011;68734;50.452;11.636;2023-05-02T08:41:13;4.72;;;3.03;;
79284;SDS011;68734;50.452;11.636;2023-05-02T08:43:43;3.55;;;2.72;;
79284;SDS011;68734;50.452;11.636;2023-05-02T08:46:12;4.85;;;3.22;;
79284;SDS011;68734;50.452;11.636;2023-05-02T08:48:40;4.88;;;3.28;;
79284;SDS011;68734;50.452;11.636;2023-05-02T08:51:10;6.93;;;3.70;;
79284;SDS011;68734;50.452;11.636;2023-05-02T08:53:39;4.97;;;3.22;;
79284;SDS011;68734;50.452;11.636;2023-05-02T08:56:06;6.35;;;2.78;;
79284;SDS011;68734;50.452;11.636;2023-05-02T08:58:33;4.10;;;3.13;;
79284;SDS011;68734;50.452;11.636;2023-05-02T09:01:01;4.68;;;2.70;;
79284;SDS011;68734;50.452;11.636;2023-05-02T09:03:34;4.05;;;2.80;;
79284;SDS011;68734;50.452;11.636;2023-05-02T09:08:30;4.55;;;2.63;;
79284;SDS011;68734;50.452;11.636;2023-05-02T09:10:58;3.60;;;2.58;;
79284;SDS011;68734;50.452;11.636;2023-05-02T09:13:28;4.40;;;2.45;;
79284;SDS011;68734;50.452;11.636;2023-05-02T09:16:15;5.22;;;2.75;;
79284;SDS011;68734;50.452;11.636;2023-05-02T09:21:20;3.53;;;2.65;;
79284;SDS011;68734;50.452;11.636;2023-05-02T09:23:50;7.13;;;3.10;;
79284;SDS011;68734;50.452;11.636;2023-05-02T09:26:20;3.55;;;3.08;;
79284;SDS011;68734;50.452;11.636;2023-05-02T09:28:54;3.83;;;2.95;;
79284;SDS011;68734;50.452;11.636;2023-05-02T09:31:21;4.07;;;2.53;;
79284;SDS011;68734;50.452;11.636;2023-05-02T09:33:50;4.13;;;2.90;;
79284;SDS011;68734;50.452;11.636;2023-05-02T09:36:17;3.67;;;2.50;;
79284;SDS011;68734;50.452;11.636;2023-05-02T09:38:44;5.65;;;2.60;;
79284;SDS011;68734;50.452;11.636;2023-05-02T09:41:11;5.25;;;3.05;;
79284;SDS011;68734;50.452;11.636;2023-05-02T09:43:37;3.63;;;2.85;;
79284;SDS011;68734;50.452;11.636;2023-05-02T09:46:04;6.70;;;3.17;;
79284;SDS011;68734;50.452;11.636;2023-05-02T09:48:31;3.95;;;2.90;;
79284;SDS011;68734;50.452;11.636;2023-05-02T09:51:16;3.60;;;2.78;;
79284;SDS011;68734;50.452;11.636;2023-05-02T09:53:43;4.90;;;2.80;;
79284;SDS011;68734;50.452;11.636;2023-05-02T09:56:09;4.50;;;2.83;;
79284;SDS011;68734;50.452;11.636;2023-05-02T09:58:34;5.40;;;3.30;;
79284;SDS011;68734;50.452;11.636;2023-05-02T10:01:00;5.15;;;3.50;;
79284;SDS011;68734;50.452;11.636;2023-05-02T10:03:26;4.30;;;3.10;;
79284;SDS011;68734;50.452;11.636;2023-05-02T10:05:56;5.85;;;3.30;;
79284;SDS011;68734;50.452;11.636;2023-05-02T10:08:25;4.60;;;3.47;;
79284;SDS011;68734;50.452;11.636;2023-05-02T10:13:25;7.78;;;3.88;;
79284;SDS011;68734;50.452;11.636;2023-05-02T10:16:00;4.35;;;3.47;;
79284;SDS011;68734;50.452;11.636;2023-05-02T10:18:28;5.90;;;4.07;;
79284;SDS011;68734;50.452;11.636;2023-05-02T10:21:11;8.02;;;4.05;;
79284;SDS011;68734;50.452;11.636;2023-05-02T10:23:41;5.72;;;3.85;;
79284;SDS011;68734;50.452;11.636;2023-05-02T10:26:09;7.57;;;4.53;;
79284;SDS011;68734;50.452;11.636;2023-05-02T10:28:36;5.50;;;4.50;;
79284;SDS011;68734;50.452;11.636;2023-05-02T10:31:03;8.02;;;4.57;;
79284;SDS011;68734;50.452;11.636;2023-05-02T10:33:32;6.32;;;4.50;;
79284;SDS011;68734;50.452;11.636;2023-05-02T10:35:59;6.53;;;4.22;;
79284;SDS011;68734;50.452;11.636;2023-05-02T10:38:25;6.60;;;3.70;;
79284;SDS011;68734;50.452;11.636;2023-05-02T10:41:00;6.53;;;4.30;;
79284;SDS011;68734;50.452;11.636;2023-05-02T10:43:32;5.78;;;3.63;;
79284;SDS011;68734;50.452;11.636;2023-05-02T10:45:59;6.10;;;4.35;;
79284;SDS011;68734;50.452;11.636;2023-05-02T10:48:27;8.07;;;5.18;;
79284;SDS011;68734;50.452;11.636;2023-05-02T10:50:54;5.32;;;4.15;;
79284;SDS011;68734;50.452;11.636;2023-05-02T10:56:18;6.10;;;4.00;;
79284;SDS011;68734;50.452;11.636;2023-05-02T10:58:50;6.20;;;3.97;;
79284;SDS011;68734;50.452;11.636;2023-05-02T11:07:16;6.68;;;3.72;;
79284;SDS011;68734;50.452;11.636;2023-05-02T11:11:47;5.53;;;3.92;;
79284;SDS011;68734;50.452;11.636;2023-05-02T11:24:47;5.32;;;3.92;;
79284;SDS011;68734;50.452;11.636;2023-05-02T11:29:55;4.78;;;3.67;;
79284;SDS011;68734;50.452;11.636;2023-05-02T11:33:09;5.47;;;3.90;;
79284;SDS011;68734;50.452;11.636;2023-05-02T11:35:17;6.95;;;3.92;;
79284;SDS011;68734;50.452;11.636;2023-05-02T11:37:53;6.00;;;4.35;;
79284;SDS011;68734;50.452;11.636;2023-05-02T11:40:18;6.43;;;3.90;;
79284;SDS011;68734;50.452;11.636;2023-05-02T11:42:44;5.85;;;4.30;;
79284;SDS011;68734;50.452;11.636;2023-05-02T11:45:10;7.55;;;4.95;;
79284;SDS011;68734;50.452;11.636;2023-05-02T11:47:35;6.32;;;4.22;;
79284;SDS011;68734;50.452;11.636;2023-05-02T11:50:04;8.32;;;4.55;;
79284;SDS011;68734;50.452;11.636;2023-05-02T11:52:35;5.95;;;4.07;;
79284;SDS011;68734;50.452;11.636;2023-05-02T11:55:05;5.72;;;4.35;;
79284;SDS011;68734;50.452;11.636;2023-05-02T11:57:37;6.38;;;4.40;;
79284;SDS011;68734;50.452;11.636;2023-05-02T12:00:07;6.40;;;4.28;;
79284;SDS011;68734;50.452;11.636;2023-05-02T12:02:36;8.10;;;4.57;;
79284;SDS011;68734;50.452;11.636;2023-05-02T12:05:03;6.20;;;4.70;;
79284;SDS011;68734;50.452;11.636;2023-05-02T12:07:38;8.98;;;5.00;;
79284;SDS011;68734;50.452;11.636;2023-05-02T12:10:06;7.22;;;4.65;;
79284;SDS011;68734;50.452;11.636;2023-05-02T12:12:32;6.40;;;4.45;;
79284;SDS011;68734;50.452;11.636;2023-05-02T12:15:03;4.72;;;3.85;;
79284;SDS011;68734;50.452;11.636;2023-05-02T12:17:33;6.18;;;4.22;;
79284;SDS011;68734;50.452;11.636;2023-05-02T12:20:05;5.82;;;4.18;;
79284;SDS011;68734;50.452;11.636;2023-05-02T12:22:32;9.02;;;4.40;;
79284;SDS011;68734;50.452;11.636;2023-05-02T12:24:58;5.18;;;3.80;;
79284;SDS011;68734;50.452;11.636;2023-05-02T12:27:23;4.72;;;3.67;;
79284;SDS011;68734;50.452;11.636;2023-05-02T12:29:49;7.93;;;3.75;;
79284;SDS011;68734;50.452;11.636;2023-05-02T12:32:25;7.10;;;4.07;;
79284;SDS011;68734;50.452;11.636;2023-05-02T12:34:55;5.75;;;4.50;;
79284;SDS011;68734;50.452;11.636;2023-05-02T12:37:22;6.22;;;3.72;;
79284;SDS011;68734;50.452;11.636;2023-05-02T12:39:48;6.30;;;4.45;;
79284;SDS011;68734;50.452;11.636;2023-05-02T12:42:15;5.45;;;4.18;;
79284;SDS011;68734;50.452;11.636;2023-05-02T12:44:42;6.18;;;4.00;;
79284;SDS011;68734;50.452;11.636;2023-05-02T12:47:11;6.03;;;3.50;;
79284;SDS011;68734;50.452;11.636;2023-05-02T12:49:53;4.70;;;3.53;;
79284;SDS011;68734;50.452;11.636;2023-05-02T12:57:42;6.50;;;3.75;;
79284;SDS011;68734;50.452;11.636;2023-05-02T13:00:08;5.85;;;3.50;;
79284;SDS011;68734;50.452;11.636;2023-05-02T13:02:34;6.45;;;4.22;;
79284;SDS011;68734;50.452;11.636;2023-05-02T13:04:59;5.10;;;2.78;;
79284;SDS011;68734;50.452;11.636;2023-05-02T13:07:27;4.40;;;3.13;;
79284;SDS011;68734;50.452;11.636;2023-05-02T13:09:52;3.65;;;2.20;;
79284;SDS011;68734;50.452;11.636;2023-05-02T13:12:18;3.85;;;2.58;;
79284;SDS011;68734;50.452;11.636;2023-05-02T13:14:43;3.10;;;2.10;;
79284;SDS011;68734;50.452;11.636;2023-05-02T13:17:09;3.00;;;2.00;;
79284;SDS011;68734;50.452;11.636;2023-05-02T13:19:34;3.28;;;2.30;;
79284;SDS011;68734;50.452;11.636;2023-05-02T13:22:00;4.47;;;2.50;;
79284;SDS011;68734;50.452;11.636;2023-05-02T13:24:25;4.95;;;2.90;;
79284;SDS011;68734;50.452;11.636;2023-05-02T13:26:51;4.43;;;2.80;;
79284;SDS011;68734;50.452;11.636;2023-05-02T13:29:16;4.38;;;2.55;;
79284;SDS011;68734;50.452;11.636;2023-05-02T13:31:41;6.80;;;3.45;;
79284;SDS011;68734;50.452;11.636;2023-05-02T13:34:07;6.43;;;3.50;;
79284;SDS011;68734;50.452;11.636;2023-05-02T13:36:33;3.97;;;2.22;;
79284;SDS011;68734;50.452;11.636;2023-05-02T13:38:59;3.30;;;2.80;;
79284;SDS011;68734;50.452;11.636;2023-05-02T13:41:24;3.22;;;1.80;;
79284;SDS011;68734;50.452;11.636;2023-05-02T13:43:50;4.95;;;2.50;;
79284;SDS011;68734;50.452;11.636;2023-05-02T13:46:15;3.28;;;2.13;;
79284;SDS011;68734;50.452;11.636;2023-05-02T13:48:40;3.15;;;2.15;;
79284;SDS011;68734;50.452;11.636;2023-05-02T13:51:08;4.50;;;2.15;;
79284;SDS011;68734;50.452;11.636;2023-05-02T13:53:34;3.13;;;2.05;;
79284;SDS011;68734;50.452;11.636;2023-05-02T13:55:59;2.90;;;1.98;;
79284;SDS011;68734;50.452;11.636;2023-05-02T13:58:27;2.95;;;1.77;;
79284;SDS011;68734;50.452;11.636;2023-05-02T14:00:52;2.55;;;1.95;;
79284;SDS011;68734;50.452;11.636;2023-05-02T14:03:18;2.33;;;1.40;;
79284;SDS011;68734;50.452;11.636;2023-05-02T14:05:45;2.63;;;1.90;;
79284;SDS011;68734;50.452;11.636;2023-05-02T14:08:11;2.20;;;1.77;;
79284;SDS011;68734;50.452;11.636;2023-05-02T14:10:42;2.20;;;1.42;;
79284;SDS011;68734;50.452;11.636;2023-05-02T14:13:07;1.73;;;1.60;;
79284;SDS011;68734;50.452;11.636;2023-05-02T14:15:33;3.13;;;1.85;;
79284;SDS011;68734;50.452;11.636;2023-05-02T14:17:59;3.83;;;2.25;;
79284;SDS011;68734;50.452;11.636;2023-05-02T14:20:24;3.67;;;2.40;;
79284;SDS011;68734;50.452;11.636;2023-05-02T14:22:50;5.20;;;3.17;;
79284;SDS011;68734;50.452;11.636;2023-05-02T14:25:15;5.65;;;3.90;;
79284;SDS011;68734;50.452;11.636;2023-05-02T14:27:43;4.53;;;3.50;;
79284;SDS011;68734;50.452;11.636;2023-05-02T14:30:10;6.95;;;4.95;;
79284;SDS011;68734;50.452;11.636;2023-05-02T14:32:36;7.03;;;4.60;;
79284;SDS011;68734;50.452;11.636;2023-05-02T14:35:01;6.68;;;4.75;;
79284;SDS011;68734;50.452;11.636;2023-05-02T14:37:27;7.47;;;4.65;;
79284;SDS011;68734;50.452;11.636;2023-05-02T14:39:52;6.25;;;4.45;;
79284;SDS011;68734;50.452;11.636;2023-05-02T14:42:20;6.35;;;4.38;;
79284;SDS011;68734;50.452;11.636;2023-05-02T14:44:46;6.20;;;4.47;;
79284;SDS011;68734;50.452;11.636;2023-05-02T14:47:12;6.57;;;4.70;;
79284;SDS011;68734;50.452;11.636;2023-05-02T14:49:37;6.63;;;5.07;;
79284;SDS011;68734;50.452;11.636;2023-05-02T14:52:03;7.05;;;4.47;;
79284;SDS011;68734;50.452;11.636;2023-05-02T14:54:28;5.55;;;4.28;;
79284;SDS011;68734;50.452;11.636;2023-05-02T14:56:54;4.65;;;3.35;;
79284;SDS011;68734;50.452;11.636;2023-05-02T14:59:20;4.70;;;3.22;;
79284;SDS011;68734;50.452;11.636;2023-05-02T15:01:46;6.75;;;3.63;;
79284;SDS011;68734;50.452;11.636;2023-05-02T15:04:12;5.85;;;4.00;;
79284;SDS011;68734;50.452;11.636;2023-05-02T15:06:41;5.00;;;3.60;;
79284;SDS011;68734;50.452;11.636;2023-05-02T15:09:07;4.82;;;3.53;;
79284;SDS011;68734;50.452;11.636;2023-05-02T15:11:32;4.65;;;3.25;;
79284;SDS011;68734;50.452;11.636;2023-05-02T15:13:58;4.93;;;3.38;;
79284;SDS011;68734;50.452;11.636;2023-05-02T15:16:25;5.75;;;3.38;;
79284;SDS011;68734;50.452;11.636;2023-05-02T15:18:51;4.57;;;3.15;;
79284;SDS011;68734;50.452;11.636;2023-05-02T15:21:16;6.45;;;3.42;;
79284;SDS011;68734;50.452;11.636;2023-05-02T15:23:42;4.85;;;3.00;;
79284;SDS011;68734;50.452;11.636;2023-05-02T15:26:07;6.03;;;3.00;;
79284;SDS011;68734;50.452;11.636;2023-05-02T15:28:33;3.58;;;2.58;;
79284;SDS011;68734;50.452;11.636;2023-05-02T15:30:58;6.03;;;2.58;;
79284;SDS011;68734;50.452;11.636;2023-05-02T15:33:23;4.10;;;2.33;;
79284;SDS011;68734;50.452;11.636;2023-05-02T15:35:52;3.55;;;2.40;;
79284;SDS011;68734;50.452;11.636;2023-05-02T15:38:23;3.90;;;2.90;;
79284;SDS011;68734;50.452;11.636;2023-05-02T15:40:55;2.67;;;1.83;;
79284;SDS011;68734;50.452;11.636;2023-05-02T15:43:22;3.15;;;2.15;;